Piltene — V7LN6 — position and weather

sailwx.info

Track history (hours):
 
Tides and Currents Weather Stations Pressure Air Temp Water Temp Dewpoint Dewpoint Depression Visibility Wind Speed Wind Dir Waves Ship Positions

Piltene

Last reported at 2018-Feb-22 14:27 UTC. Time now 2018-Feb-24 13:53 UTC.
Position N 49°49' W 003°36'.

Length 183 m; draft 10.2 m.

Type: Ship. MMSI: 538002324.

Date/timePositionNaut miles runAvg speedWind from/ knotsBaromVisibWave heightAir tempDewpointWater temp
2018-Feb-22 14:27N 49°49' W 003°36'613.3
2018-Feb-22 13:59N 49°52' W 003°27'613.1
2018-Feb-22 13:31N 49°54' W 003°18'712.7
2018-Feb-22 12:59N 49°57' W 003°09'612.2
2018-Feb-22 12:31N 49°59' W 003°00'611.7
2018-Feb-22 12:00N 50°01' W 002°52'611.4
2018-Feb-22 11:27N 50°03' W 002°42'3211.8
2018-Feb-22 08:47N 50°11' W 001°55'413.8
2018-Feb-22 08:30N 50°12' W 001°49'5615.2
2018-Feb-22 04:49N 50°27' W 000°24'414.4
2018-Feb-22 04:30N 50°28' W 000°18'714.0
2018-Feb-22 04:00N 50°30' W 000°08'713.4
2018-Feb-22 03:31N 50°32' E 000°02'713.0
2018-Feb-22 03:00N 50°34' E 000°12'612.6
2018-Feb-22 02:30N 50°36' E 000°22'612.1
2018-Feb-22 02:01N 50°37' E 000°31'611.8
2018-Feb-22 01:30N 50°40' E 000°39'612.0
2018-Feb-22 01:01N 50°44' E 000°47'612.4
2018-Feb-22 00:30N 50°47' E 000°55'613.1
2018-Feb-22 00:00N 50°51' E 001°03'714.1
2018-Feb-21 23:30N 50°56' E 001°12'815.1
2018-Feb-21 23:00N 51°01' E 001°21'815.8
2018-Feb-21 22:31N 51°06' E 001°31'816.1
2018-Feb-21 22:00N 51°11' E 001°40'714.7
2018-Feb-21 21:30N 51°17' E 001°48'713.9
2018-Feb-21 21:00N 51°23' E 001°53'713.3
2018-Feb-21 20:30N 51°28' E 001°60'612.9
2018-Feb-21 20:00N 51°33' E 002°06'612.4
2018-Feb-21 19:29N 51°38' E 002°12'8512.0
2018-Feb-21 12:24N 52°31' E 004°00'513.2
2018-Feb-21 12:00N 52°31' E 004°09'612.7
2018-Feb-21 11:30N 52°30' E 004°19'4 7.6
2018-Feb-21 11:00N 52°29' E 004°25'5 9.2
2018-Feb-21 10:30N 52°28' E 004°32'3 5.4
2018-Feb-21 10:00N 52°28' E 004°37'1 1.1
2018-Feb-21 09:31N 52°28' E 004°38'2 3.1
2018-Feb-21 09:00N 52°28' E 004°40'3 6.9
2018-Feb-21 08:31N 52°26' E 004°45'2 3.3
2018-Feb-21 08:00N 52°24' E 004°46'0 0.3
2018-Feb-21 07:26N 52°24' E 004°46'0 0.0
2018-Feb-21 06:56N 52°24' E 004°46'0 0.0
2018-Feb-21 06:11N 52°24' E 004°46'0 0.0
2018-Feb-21 05:50N 52°24' E 004°46'0 0.0
2018-Feb-21 05:20N 52°24' E 004°46'0 0.0
2018-Feb-21 04:17N 52°24' E 004°46'0 0.0
2018-Feb-21 03:56N 52°24' E 004°46'0 0.0
2018-Feb-21 03:26N 52°24' E 004°46'0 0.0
2018-Feb-21 02:53N 52°24' E 004°46'0 0.0
2018-Feb-21 02:23N 52°24' E 004°46'0 0.0
2018-Feb-21 01:56N 52°24' E 004°46'0 0.0
2018-Feb-21 01:23N 52°24' E 004°46'0 0.0
2018-Feb-21 00:50N 52°24' E 004°46'0 0.0
2018-Feb-21 00:29N 52°24' E 004°46'0 0.0
2018-Feb-20 23:56N 52°24' E 004°46'0 0.0
2018-Feb-20 23:29N 52°24' E 004°46'0 0.0
2018-Feb-20 22:56N 52°24' E 004°46'0 0.0
2018-Feb-20 22:14N 52°24' E 004°46'0 0.0
2018-Feb-20 21:56N 52°24' E 004°46'0 0.0
2018-Feb-20 21:29N 52°24' E 004°46'0 0.0
2018-Feb-20 20:47N 52°24' E 004°46'0 0.0
2018-Feb-20 20:26N 52°24' E 004°46'0 0.0
2018-Feb-20 19:57N 52°24' E 004°46'0 0.0
2018-Feb-20 19:30N 52°24' E 004°46'0 0.0
2018-Feb-20 18:57N 52°24' E 004°46'0 0.0
2018-Feb-20 18:30N 52°24' E 004°46'0 0.0
2018-Feb-20 17:57N 52°24' E 004°46'0 0.0
2018-Feb-20 17:24N 52°24' E 004°46'0 0.0
2018-Feb-20 16:57N 52°24' E 004°46'0 0.0
2018-Feb-20 16:30N 52°24' E 004°46'0 0.0
2018-Feb-20 15:54N 52°24' E 004°46'0 0.0
2018-Feb-20 15:30N 52°24' E 004°46'0 0.0
2018-Feb-20 14:57N 52°24' E 004°46'0 0.0
2018-Feb-20 14:27N 52°24' E 004°46'0 0.0
2018-Feb-20 13:57N 52°24' E 004°46'0 0.0
2018-Feb-20 12:57N 52°24' E 004°46'0 0.0
2018-Feb-20 12:24N 52°24' E 004°46'0 0.0
2018-Feb-20 11:06N 52°24' E 004°46'0 0.0
2018-Feb-20 10:51N 52°24' E 004°46'0 0.0
2018-Feb-20 10:30N 52°24' E 004°46'0 0.0
2018-Feb-20 09:54N 52°24' E 004°46'0 0.0
2018-Feb-20 09:27N 52°24' E 004°46'0 0.0
2018-Feb-20 08:48N 52°24' E 004°46'0 0.0
2018-Feb-20 08:30N 52°24' E 004°46'0 0.0
2018-Feb-20 08:00N 52°24' E 004°46'0 0.0
2018-Feb-20 07:30N 52°24' E 004°46'0 0.0
2018-Feb-20 07:00N 52°24' E 004°46'0 0.0
2018-Feb-20 06:21N 52°24' E 004°46'0 0.0
2018-Feb-20 05:42N 52°24' E 004°46'0 0.0
2018-Feb-20 05:24N 52°24' E 004°46'0 0.0
2018-Feb-20 04:57N 52°24' E 004°46'0 0.0
2018-Feb-20 04:18N 52°24' E 004°46'0 0.0
2018-Feb-20 03:42N 52°24' E 004°46'0 0.0
2018-Feb-20 03:30N 52°24' E 004°46'0 0.0
2018-Feb-20 02:42N 52°24' E 004°46'0 0.0
2018-Feb-20 02:27N 52°24' E 004°46'0 0.0
2018-Feb-20 01:57N 52°24' E 004°46'0 0.0
2018-Feb-20 01:24N 52°24' E 004°46'0 0.0
2018-Feb-20 01:00N 52°24' E 004°46'0 0.0
2018-Feb-20 00:24N 52°24' E 004°46'0 0.0
2018-Feb-20 00:00N 52°24' E 004°46'0 0.0
2018-Feb-19 23:30N 52°24' E 004°46'0 0.0
2018-Feb-19 23:00N 52°24' E 004°46'0 0.0
2018-Feb-19 22:30N 52°24' E 004°46'0 0.0
2018-Feb-19 22:00N 52°24' E 004°46'0 0.0
2018-Feb-19 21:18N 52°24' E 004°46'0 0.0
2018-Feb-19 20:48N 52°24' E 004°46'0 0.0
2018-Feb-19 20:30N 52°24' E 004°46'0 0.0
2018-Feb-19 19:45N 52°24' E 004°46'0 0.0
2018-Feb-19 19:30N 52°24' E 004°46'0 0.0
2018-Feb-19 18:57N 52°24' E 004°46'0 0.0
2018-Feb-19 18:27N 52°24' E 004°46'0 0.0
2018-Feb-19 17:57N 52°24' E 004°46'0 0.0
2018-Feb-19 17:27N 52°24' E 004°46'0 0.0
2018-Feb-19 16:57N 52°24' E 004°46'0 0.0
2018-Feb-19 16:30N 52°24' E 004°46'0 0.0
2018-Feb-19 15:51N 52°24' E 004°46'0 0.0
2018-Feb-19 15:24N 52°24' E 004°46'0 0.0
2018-Feb-19 14:51N 52°24' E 004°46'0 0.0
2018-Feb-19 14:18N 52°24' E 004°46'0 0.0
2018-Feb-19 13:48N 52°24' E 004°46'0 0.0
2018-Feb-19 13:30N 52°24' E 004°46'0 0.0
2018-Feb-19 12:48N 52°24' E 004°46'0 0.0
2018-Feb-19 12:21N 52°24' E 004°46'0 0.0
2018-Feb-19 12:00N 52°24' E 004°46'0 0.0
2018-Feb-19 06:48N 52°24' E 004°46'0 0.0
2018-Feb-19 03:42N 52°24' E 004°46'0 0.0
2018-Feb-19 03:21N 52°24' E 004°46'0 0.0
2018-Feb-19 03:00N 52°24' E 004°46'0 0.0
2018-Feb-17 20:45N 52°24' E 004°46'0 2.0
2018-Feb-17 20:30N 52°25' E 004°46'3 5.6
2018-Feb-17 20:00N 52°26' E 004°42'4 7.5
2018-Feb-17 19:30N 52°28' E 004°37'1 1.1
2018-Feb-17 19:00N 52°28' E 004°36'2 3.7
2018-Feb-17 18:30N 52°28' E 004°33'510.6
2018-Feb-17 18:01N 52°29' E 004°25'5 9.4
2018-Feb-17 17:31N 52°28' E 004°17'5 9.2
2018-Feb-17 17:01N 52°29' E 004°09'612.4
2018-Feb-17 16:31N 52°27' E 003°59'3 6.0
2018-Feb-17 16:00N 52°25' E 003°56'0 0.1
2018-Feb-17 15:26N 52°25' E 003°56'0 0.0
2018-Feb-17 14:56N 52°25' E 003°56'0 0.1
2018-Feb-17 14:20N 52°25' E 003°55'0 0.2
2018-Feb-17 13:56N 52°25' E 003°55'0 0.2
2018-Feb-17 13:26N 52°25' E 003°55'0 0.1
2018-Feb-17 12:59N 52°25' E 003°55'0 0.1
2018-Feb-17 12:26N 52°25' E 003°55'0 0.0
2018-Feb-17 11:59N 52°25' E 003°55'0 0.0
2018-Feb-17 11:29N 52°25' E 003°55'0 0.0
2018-Feb-17 10:59N 52°25' E 003°55'0 0.0
2018-Feb-17 10:29N 52°25' E 003°55'0 0.0
2018-Feb-17 09:59N 52°25' E 003°55'0 0.0
2018-Feb-17 09:29N 52°25' E 003°55'0 0.0
2018-Feb-17 08:59N 52°25' E 003°55'0 0.0
2018-Feb-17 08:29N 52°25' E 003°55'0 0.2
2018-Feb-17 07:59N 52°25' E 003°55'0 0.2
2018-Feb-17 07:23N 52°25' E 003°55'0 0.1
2018-Feb-17 06:56N 52°25' E 003°55'0 0.0
2018-Feb-17 06:26N 52°25' E 003°55'0 0.0
2018-Feb-17 05:59N 52°25' E 003°55'0 0.0
2018-Feb-17 05:29N 52°25' E 003°55'0 0.0
2018-Feb-17 04:56N 52°25' E 003°56'0 0.0
2018-Feb-17 04:26N 52°25' E 003°56'0 0.0
2018-Feb-17 03:59N 52°25' E 003°56'0 0.1
2018-Feb-17 03:29N 52°25' E 003°56'0 0.1
2018-Feb-17 02:59N 52°25' E 003°56'0 0.0
2018-Feb-17 02:29N 52°25' E 003°56'0 0.1
2018-Feb-17 01:56N 52°25' E 003°55'0 0.2
2018-Feb-17 01:29N 52°25' E 003°55'0 0.2
2018-Feb-17 00:59N 52°25' E 003°55'0 0.1
2018-Feb-17 00:29N 52°25' E 003°55'0 0.0
2018-Feb-16 23:56N 52°25' E 003°55'0 0.0
2018-Feb-16 23:29N 52°25' E 003°55'0 0.0
2018-Feb-16 22:59N 52°25' E 003°55'0 0.1
2018-Feb-16 22:26N 52°25' E 003°55'0 0.0
2018-Feb-16 21:59N 52°25' E 003°55'0 0.0
2018-Feb-16 21:29N 52°25' E 003°55'0 0.0
2018-Feb-16 19:56N 52°25' E 003°56'0 0.1
2018-Feb-16 17:56N 52°25' E 003°56'0 0.0
2018-Feb-16 16:50N 52°25' E 003°56'0 0.0
2018-Feb-16 16:23N 52°25' E 003°56'0 0.0
2018-Feb-16 15:59N 52°25' E 003°56'0 0.0
2018-Feb-16 15:29N 52°25' E 003°56'0 0.1
2018-Feb-16 14:59N 52°25' E 003°56'0 0.0
2018-Feb-16 14:26N 52°25' E 003°56'0 0.1
2018-Feb-16 13:26N 52°25' E 003°56'0 0.1
2018-Feb-16 12:50N 52°25' E 003°56'0 0.1
2018-Feb-16 12:26N 52°25' E 003°56'0 0.1
2018-Feb-16 11:56N 52°25' E 003°56'0 0.0
2018-Feb-16 11:29N 52°25' E 003°56'0 0.0
2018-Feb-16 10:59N 52°25' E 003°56'0 0.0
2018-Feb-16 10:29N 52°25' E 003°56'0 0.1
2018-Feb-16 09:59N 52°25' E 003°56'0 0.0
2018-Feb-16 09:29N 52°25' E 003°56'0 0.0
2018-Feb-16 08:59N 52°25' E 003°56'0 0.0
2018-Feb-16 08:29N 52°25' E 003°56'0 0.1
2018-Feb-16 07:53N 52°25' E 003°56'0 0.1
2018-Feb-16 07:23N 52°25' E 003°56'0 0.0
2018-Feb-16 06:59N 52°25' E 003°56'0 0.0
2018-Feb-16 00:32N 52°25' E 003°56'0 0.0
2018-Feb-16 00:29N 52°25' E 003°56'0 0.0
2018-Feb-15 23:14N 52°25' E 003°56'0 0.1
2018-Feb-15 22:56N 52°25' E 003°56'0 0.2
2018-Feb-15 22:29N 52°25' E 003°56'0 0.1
2018-Feb-15 21:44N 52°25' E 003°55'0 0.0
2018-Feb-15 21:29N 52°25' E 003°55'0 0.0
2018-Feb-15 20:59N 52°25' E 003°55'0 0.1
2018-Feb-15 20:26N 52°25' E 003°56'0 0.2
2018-Feb-15 19:59N 52°25' E 003°56'0 0.1
2018-Feb-15 19:29N 52°25' E 003°56'0 0.1
2018-Feb-15 18:53N 52°25' E 003°56'0 0.0
2018-Feb-15 17:50N 52°25' E 003°56'0 0.1
2018-Feb-15 17:29N 52°25' E 003°56'0 0.0
2018-Feb-15 16:53N 52°25' E 003°56'0 0.0
2018-Feb-15 16:26N 52°25' E 003°56'0 0.0
2018-Feb-15 15:59N 52°25' E 003°56'0 0.0
2018-Feb-15 15:26N 52°25' E 003°56'0 0.0
2018-Feb-15 14:59N 52°25' E 003°56'0 0.0
2018-Feb-15 13:59N 52°25' E 003°56'0 0.0
2018-Feb-15 13:20N 52°25' E 003°56'0 0.1
2018-Feb-15 12:56N 52°25' E 003°56'0 0.0
2018-Feb-15 12:29N 52°25' E 003°56'0 0.0
2018-Feb-15 11:20N 52°25' E 003°56'0 0.0
2018-Feb-15 10:59N 52°25' E 003°56'0 0.0
2018-Feb-15 10:08N 52°25' E 003°56'0 0.1
2018-Feb-15 09:56N 52°25' E 003°56'0 0.3
2018-Feb-15 09:26N 52°25' E 003°55'0 0.3
2018-Feb-15 09:00N 52°25' E 003°55'3 6.8
2018-Feb-15 08:31N 52°26' E 003°50'6012.2
2018-Feb-15 03:35N 51°46' E 002°38'414.1
2018-Feb-15 03:19N 51°43' E 002°34'514.3
2018-Feb-15 02:59N 51°39' E 002°28'714.5
2018-Feb-15 02:30N 51°34' E 002°21'714.9
2018-Feb-15 02:00N 51°29' E 002°12'613.0
2018-Feb-15 01:30N 51°23' E 002°08'713.6
2018-Feb-15 01:00N 51°16' E 002°07'815.3
2018-Feb-15 00:30N 51°11' E 001°57'816.2
2018-Feb-15 00:01N 51°08' E 001°46'917.2
2018-Feb-14 23:30N 51°01' E 001°37'917.2
2018-Feb-14 23:00N 50°55' E 001°27'816.4
2018-Feb-14 22:30N 50°47' E 001°23'814.9
2018-Feb-14 21:56N 50°40' E 001°16'3613.7
2018-Feb-14 19:19N 50°25' E 000°25'613.8
2018-Feb-14 18:55N 50°23' E 000°17'613.7
2018-Feb-14 18:30N 50°21' E 000°08'813.3
2018-Feb-14 17:53N 50°19' W 000°04'712.8
2018-Feb-14 17:22N 50°18' W 000°14'3011.2
2018-Feb-14 14:41N 50°11' W 000°60'3 9.9
2018-Feb-14 14:25N 50°10' W 001°04'4 9.8
2018-Feb-14 14:00N 50°09' W 001°10'5 9.6
2018-Feb-14 13:31N 50°08' W 001°17'5 9.6
2018-Feb-14 13:00N 50°06' W 001°24'5 9.9
2018-Feb-14 12:30N 50°05' W 001°31'510.2
2018-Feb-14 12:00N 50°03' W 001°39'510.6
2018-Feb-14 11:30N 50°03' W 001°47'611.1
2018-Feb-14 11:00N 50°02' W 001°56'2112.6
2018-Feb-14 09:21N 49°55' W 002°26'513.4
2018-Feb-14 09:00N 49°53' W 002°33'713.6
2018-Feb-14 08:30N 49°52' W 002°44'713.7
2018-Feb-14 08:01N 49°50' W 002°54'1313.8
2018-Feb-14 07:04N 49°46' W 003°13'113.7
2018-Feb-14 06:59N 49°46' W 003°15'  
Track history (hours):
 
Tides and Currents Weather Stations Pressure Air Temp Water Temp Dewpoint Dewpoint Depression Visibility Wind Speed Wind Dir Waves Ship Positions

Piltene

Last reported at 2018-Feb-22 14:27 UTC. Time now 2018-Feb-24 13:53 UTC.
Position N 49°49' W 003°36'.

Length 183 m; draft 10.2 m.

Type: Ship. MMSI: 538002324.

Date/timePositionNaut miles runAvg speedWind from/ knotsBaromVisibWave heightAir tempDewpointWater temp
2018-Feb-22 14:27N 49°49' W 003°36'613.3
2018-Feb-22 13:59N 49°52' W 003°27'613.1
2018-Feb-22 13:31N 49°54' W 003°18'712.7
2018-Feb-22 12:59N 49°57' W 003°09'612.2
2018-Feb-22 12:31N 49°59' W 003°00'611.7
2018-Feb-22 12:00N 50°01' W 002°52'611.4
2018-Feb-22 11:27N 50°03' W 002°42'3211.8
2018-Feb-22 08:47N 50°11' W 001°55'413.8
2018-Feb-22 08:30N 50°12' W 001°49'5615.2
2018-Feb-22 04:49N 50°27' W 000°24'414.4
2018-Feb-22 04:30N 50°28' W 000°18'714.0
2018-Feb-22 04:00N 50°30' W 000°08'713.4
2018-Feb-22 03:31N 50°32' E 000°02'713.0
2018-Feb-22 03:00N 50°34' E 000°12'612.6
2018-Feb-22 02:30N 50°36' E 000°22'612.1
2018-Feb-22 02:01N 50°37' E 000°31'611.8
2018-Feb-22 01:30N 50°40' E 000°39'612.0
2018-Feb-22 01:01N 50°44' E 000°47'612.4
2018-Feb-22 00:30N 50°47' E 000°55'613.1
2018-Feb-22 00:00N 50°51' E 001°03'714.1
2018-Feb-21 23:30N 50°56' E 001°12'815.1
2018-Feb-21 23:00N 51°01' E 001°21'815.8
2018-Feb-21 22:31N 51°06' E 001°31'816.1
2018-Feb-21 22:00N 51°11' E 001°40'714.7
2018-Feb-21 21:30N 51°17' E 001°48'713.9
2018-Feb-21 21:00N 51°23' E 001°53'713.3
2018-Feb-21 20:30N 51°28' E 001°60'612.9
2018-Feb-21 20:00N 51°33' E 002°06'612.4
2018-Feb-21 19:29N 51°38' E 002°12'8512.0
2018-Feb-21 12:24N 52°31' E 004°00'513.2
2018-Feb-21 12:00N 52°31' E 004°09'612.7
2018-Feb-21 11:30N 52°30' E 004°19'4 7.6
2018-Feb-21 11:00N 52°29' E 004°25'5 9.2
2018-Feb-21 10:30N 52°28' E 004°32'3 5.4
2018-Feb-21 10:00N 52°28' E 004°37'1 1.1
2018-Feb-21 09:31N 52°28' E 004°38'2 3.1
2018-Feb-21 09:00N 52°28' E 004°40'3 6.9
2018-Feb-21 08:31N 52°26' E 004°45'2 3.3
2018-Feb-21 08:00N 52°24' E 004°46'0 0.3
2018-Feb-21 07:26N 52°24' E 004°46'0 0.0
2018-Feb-21 06:56N 52°24' E 004°46'0 0.0
2018-Feb-21 06:11N 52°24' E 004°46'0 0.0
2018-Feb-21 05:50N 52°24' E 004°46'0 0.0
2018-Feb-21 05:20N 52°24' E 004°46'0 0.0
2018-Feb-21 04:17N 52°24' E 004°46'0 0.0
2018-Feb-21 03:56N 52°24' E 004°46'0 0.0
2018-Feb-21 03:26N 52°24' E 004°46'0 0.0
2018-Feb-21 02:53N 52°24' E 004°46'0 0.0
2018-Feb-21 02:23N 52°24' E 004°46'0 0.0
2018-Feb-21 01:56N 52°24' E 004°46'0 0.0
2018-Feb-21 01:23N 52°24' E 004°46'0 0.0
2018-Feb-21 00:50N 52°24' E 004°46'0 0.0
2018-Feb-21 00:29N 52°24' E 004°46'0 0.0
2018-Feb-20 23:56N 52°24' E 004°46'0 0.0
2018-Feb-20 23:29N 52°24' E 004°46'0 0.0
2018-Feb-20 22:56N 52°24' E 004°46'0 0.0
2018-Feb-20 22:14N 52°24' E 004°46'0 0.0
2018-Feb-20 21:56N 52°24' E 004°46'0 0.0
2018-Feb-20 21:29N 52°24' E 004°46'0 0.0
2018-Feb-20 20:47N 52°24' E 004°46'0 0.0
2018-Feb-20 20:26N 52°24' E 004°46'0 0.0
2018-Feb-20 19:57N 52°24' E 004°46'0 0.0
2018-Feb-20 19:30N 52°24' E 004°46'0 0.0
2018-Feb-20 18:57N 52°24' E 004°46'0 0.0
2018-Feb-20 18:30N 52°24' E 004°46'0 0.0
2018-Feb-20 17:57N 52°24' E 004°46'0 0.0
2018-Feb-20 17:24N 52°24' E 004°46'0 0.0
2018-Feb-20 16:57N 52°24' E 004°46'0 0.0
2018-Feb-20 16:30N 52°24' E 004°46'0 0.0
2018-Feb-20 15:54N 52°24' E 004°46'0 0.0
2018-Feb-20 15:30N 52°24' E 004°46'0 0.0
2018-Feb-20 14:57N 52°24' E 004°46'0 0.0
2018-Feb-20 14:27N 52°24' E 004°46'0 0.0
2018-Feb-20 13:57N 52°24' E 004°46'0 0.0
2018-Feb-20 12:57N 52°24' E 004°46'0 0.0
2018-Feb-20 12:24N 52°24' E 004°46'0 0.0
2018-Feb-20 11:06N 52°24' E 004°46'0 0.0
2018-Feb-20 10:51N 52°24' E 004°46'0 0.0
2018-Feb-20 10:30N 52°24' E 004°46'0 0.0
2018-Feb-20 09:54N 52°24' E 004°46'0 0.0
2018-Feb-20 09:27N 52°24' E 004°46'0 0.0
2018-Feb-20 08:48N 52°24' E 004°46'0 0.0
2018-Feb-20 08:30N 52°24' E 004°46'0 0.0
2018-Feb-20 08:00N 52°24' E 004°46'0 0.0
2018-Feb-20 07:30N 52°24' E 004°46'0 0.0
2018-Feb-20 07:00N 52°24' E 004°46'0 0.0
2018-Feb-20 06:21N 52°24' E 004°46'0 0.0
2018-Feb-20 05:42N 52°24' E 004°46'0 0.0
2018-Feb-20 05:24N 52°24' E 004°46'0 0.0
2018-Feb-20 04:57N 52°24' E 004°46'0 0.0
2018-Feb-20 04:18N 52°24' E 004°46'0 0.0
2018-Feb-20 03:42N 52°24' E 004°46'0 0.0
2018-Feb-20 03:30N 52°24' E 004°46'0 0.0
2018-Feb-20 02:42N 52°24' E 004°46'0 0.0
2018-Feb-20 02:27N 52°24' E 004°46'0 0.0
2018-Feb-20 01:57N 52°24' E 004°46'0 0.0
2018-Feb-20 01:24N 52°24' E 004°46'0 0.0
2018-Feb-20 01:00N 52°24' E 004°46'0 0.0
2018-Feb-20 00:24N 52°24' E 004°46'0 0.0
2018-Feb-20 00:00N 52°24' E 004°46'0 0.0
2018-Feb-19 23:30N 52°24' E 004°46'0 0.0
2018-Feb-19 23:00N 52°24' E 004°46'0 0.0
2018-Feb-19 22:30N 52°24' E 004°46'0 0.0
2018-Feb-19 22:00N 52°24' E 004°46'0 0.0
2018-Feb-19 21:18N 52°24' E 004°46'0 0.0
2018-Feb-19 20:48N 52°24' E 004°46'0 0.0
2018-Feb-19 20:30N 52°24' E 004°46'0 0.0
2018-Feb-19 19:45N 52°24' E 004°46'0 0.0
2018-Feb-19 19:30N 52°24' E 004°46'0 0.0
2018-Feb-19 18:57N 52°24' E 004°46'0 0.0
2018-Feb-19 18:27N 52°24' E 004°46'0 0.0
2018-Feb-19 17:57N 52°24' E 004°46'0 0.0
2018-Feb-19 17:27N 52°24' E 004°46'0 0.0
2018-Feb-19 16:57N 52°24' E 004°46'0 0.0
2018-Feb-19 16:30N 52°24' E 004°46'0 0.0
2018-Feb-19 15:51N 52°24' E 004°46'0 0.0
2018-Feb-19 15:24N 52°24' E 004°46'0 0.0
2018-Feb-19 14:51N 52°24' E 004°46'0 0.0
2018-Feb-19 14:18N 52°24' E 004°46'0 0.0
2018-Feb-19 13:48N 52°24' E 004°46'0 0.0
2018-Feb-19 13:30N 52°24' E 004°46'0 0.0
2018-Feb-19 12:48N 52°24' E 004°46'0 0.0
2018-Feb-19 12:21N 52°24' E 004°46'0 0.0
2018-Feb-19 12:00N 52°24' E 004°46'0 0.0
2018-Feb-19 06:48N 52°24' E 004°46'0 0.0
2018-Feb-19 03:42N 52°24' E 004°46'0 0.0
2018-Feb-19 03:21N 52°24' E 004°46'0 0.0
2018-Feb-19 03:00N 52°24' E 004°46'0 0.0
2018-Feb-17 20:45N 52°24' E 004°46'0 2.0
2018-Feb-17 20:30N 52°25' E 004°46'3 5.6
2018-Feb-17 20:00N 52°26' E 004°42'4 7.5
2018-Feb-17 19:30N 52°28' E 004°37'1 1.1
2018-Feb-17 19:00N 52°28' E 004°36'2 3.7
2018-Feb-17 18:30N 52°28' E 004°33'510.6
2018-Feb-17 18:01N 52°29' E 004°25'5 9.4
2018-Feb-17 17:31N 52°28' E 004°17'5 9.2
2018-Feb-17 17:01N 52°29' E 004°09'612.4
2018-Feb-17 16:31N 52°27' E 003°59'3 6.0
2018-Feb-17 16:00N 52°25' E 003°56'0 0.1
2018-Feb-17 15:26N 52°25' E 003°56'0 0.0
2018-Feb-17 14:56N 52°25' E 003°56'0 0.1
2018-Feb-17 14:20N 52°25' E 003°55'0 0.2
2018-Feb-17 13:56N 52°25' E 003°55'0 0.2
2018-Feb-17 13:26N 52°25' E 003°55'0 0.1
2018-Feb-17 12:59N 52°25' E 003°55'0 0.1
2018-Feb-17 12:26N 52°25' E 003°55'0 0.0
2018-Feb-17 11:59N 52°25' E 003°55'0 0.0
2018-Feb-17 11:29N 52°25' E 003°55'0 0.0
2018-Feb-17 10:59N 52°25' E 003°55'0 0.0
2018-Feb-17 10:29N 52°25' E 003°55'0 0.0
2018-Feb-17 09:59N 52°25' E 003°55'0 0.0
2018-Feb-17 09:29N 52°25' E 003°55'0 0.0
2018-Feb-17 08:59N 52°25' E 003°55'0 0.0
2018-Feb-17 08:29N 52°25' E 003°55'0 0.2
2018-Feb-17 07:59N 52°25' E 003°55'0 0.2
2018-Feb-17 07:23N 52°25' E 003°55'0 0.1
2018-Feb-17 06:56N 52°25' E 003°55'0 0.0
2018-Feb-17 06:26N 52°25' E 003°55'0 0.0
2018-Feb-17 05:59N 52°25' E 003°55'0 0.0
2018-Feb-17 05:29N 52°25' E 003°55'0 0.0
2018-Feb-17 04:56N 52°25' E 003°56'0 0.0
2018-Feb-17 04:26N 52°25' E 003°56'0 0.0
2018-Feb-17 03:59N 52°25' E 003°56'0 0.1
2018-Feb-17 03:29N 52°25' E 003°56'0 0.1
2018-Feb-17 02:59N 52°25' E 003°56'0 0.0
2018-Feb-17 02:29N 52°25' E 003°56'0 0.1
2018-Feb-17 01:56N 52°25' E 003°55'0 0.2
2018-Feb-17 01:29N 52°25' E 003°55'0 0.2
2018-Feb-17 00:59N 52°25' E 003°55'0 0.1
2018-Feb-17 00:29N 52°25' E 003°55'0 0.0
2018-Feb-16 23:56N 52°25' E 003°55'0 0.0
2018-Feb-16 23:29N 52°25' E 003°55'0 0.0
2018-Feb-16 22:59N 52°25' E 003°55'0 0.1
2018-Feb-16 22:26N 52°25' E 003°55'0 0.0
2018-Feb-16 21:59N 52°25' E 003°55'0 0.0
2018-Feb-16 21:29N 52°25' E 003°55'0 0.0
2018-Feb-16 19:56N 52°25' E 003°56'0 0.1
2018-Feb-16 17:56N 52°25' E 003°56'0 0.0
2018-Feb-16 16:50N 52°25' E 003°56'0 0.0
2018-Feb-16 16:23N 52°25' E 003°56'0 0.0
2018-Feb-16 15:59N 52°25' E 003°56'0 0.0
2018-Feb-16 15:29N 52°25' E 003°56'0 0.1
2018-Feb-16 14:59N 52°25' E 003°56'0 0.0
2018-Feb-16 14:26N 52°25' E 003°56'0 0.1
2018-Feb-16 13:26N 52°25' E 003°56'0 0.1
2018-Feb-16 12:50N 52°25' E 003°56'0 0.1
2018-Feb-16 12:26N 52°25' E 003°56'0 0.1
2018-Feb-16 11:56N 52°25' E 003°56'0 0.0
2018-Feb-16 11:29N 52°25' E 003°56'0 0.0
2018-Feb-16 10:59N 52°25' E 003°56'0 0.0
2018-Feb-16 10:29N 52°25' E 003°56'0 0.1
2018-Feb-16 09:59N 52°25' E 003°56'0 0.0
2018-Feb-16 09:29N 52°25' E 003°56'0 0.0
2018-Feb-16 08:59N 52°25' E 003°56'0 0.0
2018-Feb-16 08:29N 52°25' E 003°56'0 0.1
2018-Feb-16 07:53N 52°25' E 003°56'0 0.1
2018-Feb-16 07:23N 52°25' E 003°56'0 0.0
2018-Feb-16 06:59N 52°25' E 003°56'0 0.0
2018-Feb-16 00:32N 52°25' E 003°56'0 0.0
2018-Feb-16 00:29N 52°25' E 003°56'0 0.0
2018-Feb-15 23:14N 52°25' E 003°56'0 0.1
2018-Feb-15 22:56N 52°25' E 003°56'0 0.2
2018-Feb-15 22:29N 52°25' E 003°56'0 0.1
2018-Feb-15 21:44N 52°25' E 003°55'0 0.0
2018-Feb-15 21:29N 52°25' E 003°55'0 0.0
2018-Feb-15 20:59N 52°25' E 003°55'0 0.1
2018-Feb-15 20:26N 52°25' E 003°56'0 0.2
2018-Feb-15 19:59N 52°25' E 003°56'0 0.1
2018-Feb-15 19:29N 52°25' E 003°56'0 0.1
2018-Feb-15 18:53N 52°25' E 003°56'0 0.0
2018-Feb-15 17:50N 52°25' E 003°56'0 0.1
2018-Feb-15 17:29N 52°25' E 003°56'0 0.0
2018-Feb-15 16:53N 52°25' E 003°56'0 0.0
2018-Feb-15 16:26N 52°25' E 003°56'0 0.0
2018-Feb-15 15:59N 52°25' E 003°56'0 0.0
2018-Feb-15 15:26N 52°25' E 003°56'0 0.0
2018-Feb-15 14:59N 52°25' E 003°56'0 0.0
2018-Feb-15 13:59N 52°25' E 003°56'0 0.0
2018-Feb-15 13:20N 52°25' E 003°56'0 0.1
2018-Feb-15 12:56N 52°25' E 003°56'0 0.0
2018-Feb-15 12:29N 52°25' E 003°56'0 0.0
2018-Feb-15 11:20N 52°25' E 003°56'0 0.0
2018-Feb-15 10:59N 52°25' E 003°56'0 0.0
2018-Feb-15 10:08N 52°25' E 003°56'0 0.1
2018-Feb-15 09:56N 52°25' E 003°56'0 0.3
2018-Feb-15 09:26N 52°25' E 003°55'0 0.3
2018-Feb-15 09:00N 52°25' E 003°55'3 6.8
2018-Feb-15 08:31N 52°26' E 003°50'6012.2
2018-Feb-15 03:35N 51°46' E 002°38'414.1
2018-Feb-15 03:19N 51°43' E 002°34'514.3
2018-Feb-15 02:59N 51°39' E 002°28'714.5
2018-Feb-15 02:30N 51°34' E 002°21'714.9
2018-Feb-15 02:00N 51°29' E 002°12'613.0
2018-Feb-15 01:30N 51°23' E 002°08'713.6
2018-Feb-15 01:00N 51°16' E 002°07'815.3
2018-Feb-15 00:30N 51°11' E 001°57'816.2
2018-Feb-15 00:01N 51°08' E 001°46'917.2
2018-Feb-14 23:30N 51°01' E 001°37'917.2
2018-Feb-14 23:00N 50°55' E 001°27'816.4
2018-Feb-14 22:30N 50°47' E 001°23'814.9
2018-Feb-14 21:56N 50°40' E 001°16'3613.7
2018-Feb-14 19:19N 50°25' E 000°25'613.8
2018-Feb-14 18:55N 50°23' E 000°17'613.7
2018-Feb-14 18:30N 50°21' E 000°08'813.3
2018-Feb-14 17:53N 50°19' W 000°04'712.8
2018-Feb-14 17:22N 50°18' W 000°14'3011.2
2018-Feb-14 14:41N 50°11' W 000°60'3 9.9
2018-Feb-14 14:25N 50°10' W 001°04'4 9.8
2018-Feb-14 14:00N 50°09' W 001°10'5 9.6
2018-Feb-14 13:31N 50°08' W 001°17'5 9.6
2018-Feb-14 13:00N 50°06' W 001°24'5 9.9
2018-Feb-14 12:30N 50°05' W 001°31'510.2
2018-Feb-14 12:00N 50°03' W 001°39'510.6
2018-Feb-14 11:30N 50°03' W 001°47'611.1
2018-Feb-14 11:00N 50°02' W 001°56'2112.6
2018-Feb-14 09:21N 49°55' W 002°26'513.4
2018-Feb-14 09:00N 49°53' W 002°33'713.6
2018-Feb-14 08:30N 49°52' W 002°44'713.7
2018-Feb-14 08:01N 49°50' W 002°54'1313.8
2018-Feb-14 07:04N 49°46' W 003°13'113.7
2018-Feb-14 06:59N 49°46' W 003°15'  

Dump ship's entire track history